Bridgman, Michigan
Current Conditions -  °F | °C
As of 10:53 PM on Saturday 20 Dec 2014 (Local Time) from KBEH Reporting Station
Overcast Overcast  
Wind Chill: 31°   Ceiling: 6500
Heat Index: 31°   Visibility: 9mi
Dew Point: 26°   Wind: 3mph
Humidity: 82%   Direction: 190°S
Pressure: 30.27"   Gusts: NA
Location:  41.94°N, 86.56°W
Report Text: KBEH 210353Z AUTO 19003KT 9SM OVC065 M01/M03 A3027 RMK AO2 SLP258 T10061033
Loading
Personal Weather Stations






























Interactive Weather Map New forecast layout! Learn more

10-Day Weather Forecast

Advertisements
Track Severe Weather on mobile